Time;durP1;ratioP1;P1;durP2;ratioP2;P2;SDS_P1;SDS_P2;PMS_P1;PMS_P2;Temp;Humidity;BMP_temperature;BMP_pressure;BME280_temperature;BME280_humidity;BME280_pressure;Samples;Min_cycle;Max_cycle;Signal;HPM_P1;HPM_P2
2023/12/27 00:00:37;;;;;;;2.55;0.82;;;;;;;;;;5062911;28;20044;-82
2023/12/27 00:03:04;;;;;;;3.50;1.05;;;;;;;;;;5086352;28;20032;-82
2023/12/27 00:05:30;;;;;;;4.85;1.85;;;;;;;;;;5088413;28;20036;-82
2023/12/27 00:07:57;;;;;;;3.20;1.08;;;;;;;;;;5067354;28;20040;-82
2023/12/27 00:10:23;;;;;;;3.00;1.17;;;;;;;;;;5069252;28;20044;-82
2023/12/27 00:12:49;;;;;;;3.50;0.82;;;;;;;;;;5064034;28;20072;-82
2023/12/27 00:15:15;;;;;;;4.93;1.50;;;;;;;;;;5080170;28;20040;-82
2023/12/27 00:17:41;;;;;;;1.45;0.80;;;;;;;;;;5078301;28;20075;-82
2023/12/27 00:20:07;;;;;;;5.63;1.13;;;;;;;;;;5081284;28;20036;-82
2023/12/27 00:22:34;;;;;;;3.72;1.20;;;;;;;;;;5046541;28;20052;-82
2023/12/27 00:25:00;;;;;;;2.33;0.88;;;;;;;;;;5059924;28;20419;-82
2023/12/27 00:27:26;;;;;;;1.48;1.02;;;;;;;;;;5075623;28;20041;-82
2023/12/27 00:29:52;;;;;;;3.22;1.30;;;;;;;;;;5063175;28;20039;-82
2023/12/27 00:32:18;;;;;;;3.58;1.48;;;;;;;;;;5063712;28;20451;-82
2023/12/27 00:34:44;;;;;;;6.07;1.55;;;;;;;;;;5064577;28;20090;-82
2023/12/27 00:37:10;;;;;;;3.70;1.45;;;;;;;;;;5073510;28;20048;-82
2023/12/27 00:39:36;;;;;;;4.75;1.35;;;;;;;;;;5082515;28;20044;-82
2023/12/27 00:42:03;;;;;;;4.43;1.33;;;;;;;;;;5082077;28;20051;-82
2023/12/27 00:44:28;;;;;;;4.45;1.45;;;;;;;;;;5066668;28;20055;-82
2023/12/27 00:46:54;;;;;;;4.18;1.38;;;;;;;;;;5088965;28;20033;-82
2023/12/27 00:49:21;;;;;;;2.97;1.40;;;;;;;;;;5088366;28;20045;-82
2023/12/27 00:51:47;;;;;;;2.75;1.17;;;;;;;;;;5087524;28;20028;-82
2023/12/27 00:54:13;;;;;;;3.30;1.33;;;;;;;;;;5078593;28;20051;-82
2023/12/27 00:56:39;;;;;;;2.40;1.40;;;;;;;;;;5088687;28;20028;-82
2023/12/27 00:59:06;;;;;;;5.15;1.85;;;;;;;;;;5063610;28;20037;-82
2023/12/27 01:01:32;;;;;;;4.78;1.48;;;;;;;;;;5079307;28;20124;-82
2023/12/27 01:03:59;;;;;;;4.75;1.70;;;;;;;;;;5077871;28;20044;-82
2023/12/27 01:06:25;;;;;;;5.28;2.00;;;;;;;;;;5079410;28;20047;-82
2023/12/27 01:08:51;;;;;;;5.43;1.75;;;;;;;;;;5080740;28;20037;-82
2023/12/27 01:11:17;;;;;;;4.82;1.40;;;;;;;;;;5080312;28;20047;-82
2023/12/27 01:13:43;;;;;;;5.75;1.60;;;;;;;;;;5061502;28;20120;-83
2023/12/27 01:16:09;;;;;;;3.30;1.58;;;;;;;;;;5080930;28;20064;-83
2023/12/27 01:18:35;;;;;;;5.60;1.63;;;;;;;;;;5066051;28;20070;-82
2023/12/27 01:21:02;;;;;;;3.58;1.70;;;;;;;;;;5065753;28;20072;-82
2023/12/27 01:23:29;;;;;;;5.50;1.85;;;;;;;;;;5084776;28;20048;-82
2023/12/27 01:25:55;;;;;;;5.22;2.10;;;;;;;;;;5082838;28;20052;-82
2023/12/27 01:28:21;;;;;;;3.53;2.05;;;;;;;;;;5067837;28;20072;-82
2023/12/27 01:30:47;;;;;;;3.03;1.77;;;;;;;;;;5068247;28;20062;-82
2023/12/27 01:33:13;;;;;;;3.65;1.92;;;;;;;;;;5085463;28;20131;-82
2023/12/27 01:35:39;;;;;;;3.58;1.95;;;;;;;;;;5082679;28;20032;-82
2023/12/27 01:38:05;;;;;;;6.63;1.92;;;;;;;;;;5084268;28;20052;-82
2023/12/27 01:40:31;;;;;;;3.50;1.80;;;;;;;;;;5066979;28;20067;-82
2023/12/27 01:42:58;;;;;;;5.03;1.92;;;;;;;;;;5084132;28;20036;-82
2023/12/27 01:45:24;;;;;;;6.40;2.03;;;;;;;;;;5085466;28;20040;-82
2023/12/27 01:47:49;;;;;;;3.50;1.73;;;;;;;;;;5064853;28;20041;-82
2023/12/27 01:50:16;;;;;;;3.47;2.10;;;;;;;;;;5081255;28;20058;-82
2023/12/27 01:52:42;;;;;;;3.55;1.80;;;;;;;;;;5084464;28;20028;-82
2023/12/27 01:55:09;;;;;;;4.95;2.00;;;;;;;;;;5082727;28;20037;-82
2023/12/27 01:57:38;;;;;;;3.22;1.60;;;;;;;;;;5080702;28;20028;-83
2023/12/27 02:00:04;;;;;;;5.90;2.05;;;;;;;;;;5084158;28;20105;-83
2023/12/27 02:02:30;;;;;;;2.97;2.03;;;;;;;;;;5084693;28;20043;-82
2023/12/27 02:04:56;;;;;;;3.90;1.83;;;;;;;;;;5082335;28;20047;-82
2023/12/27 02:07:22;;;;;;;4.57;1.80;;;;;;;;;;5065333;28;20535;-82
2023/12/27 02:09:50;;;;;;;2.50;1.70;;;;;;;;;;5083442;28;20167;-82
2023/12/27 02:12:26;;;;;;;2.58;1.73;;;;;;;;;;5083578;28;20036;-82
2023/12/27 02:14:52;;;;;;;3.53;2.13;;;;;;;;;;5076599;28;20052;-82
2023/12/27 02:17:18;;;;;;;4.75;1.95;;;;;;;;;;5083919;28;20033;-82
2023/12/27 02:19:44;;;;;;;5.25;1.73;;;;;;;;;;5083919;28;20040;-82
2023/12/27 02:22:12;;;;;;;4.90;1.90;;;;;;;;;;5082508;28;20040;-82
2023/12/27 02:24:38;;;;;;;2.33;1.60;;;;;;;;;;5083743;28;20105;-82
2023/12/27 02:27:04;;;;;;;3.67;1.45;;;;;;;;;;5060880;28;20036;-82
2023/12/27 02:29:30;;;;;;;3.65;2.22;;;;;;;;;;5066018;28;20063;-82
2023/12/27 02:31:56;;;;;;;6.55;2.28;;;;;;;;;;5064751;28;20032;-82
2023/12/27 02:34:22;;;;;;;4.22;1.50;;;;;;;;;;5065402;28;20045;-82
2023/12/27 02:36:48;;;;;;;2.10;1.42;;;;;;;;;;5061913;28;20064;-82
2023/12/27 02:39:14;;;;;;;2.53;2.13;;;;;;;;;;5057125;28;20045;-82
2023/12/27 02:41:40;;;;;;;2.35;1.60;;;;;;;;;;5063388;28;20044;-82
2023/12/27 02:44:06;;;;;;;5.25;2.10;;;;;;;;;;5060531;28;20033;-82
2023/12/27 02:46:33;;;;;;;4.30;1.88;;;;;;;;;;5064846;28;20041;-82
2023/12/27 02:48:59;;;;;;;4.53;1.70;;;;;;;;;;5063853;28;20049;-82
2023/12/27 02:51:25;;;;;;;4.72;1.77;;;;;;;;;;5065113;28;20071;-82
2023/12/27 02:53:51;;;;;;;4.43;1.90;;;;;;;;;;5064445;28;20032;-82
2023/12/27 02:56:17;;;;;;;4.38;1.92;;;;;;;;;;5063105;28;20039;-82
2023/12/27 02:58:43;;;;;;;4.07;1.95;;;;;;;;;;5058805;28;20496;-82
2023/12/27 03:01:09;;;;;;;4.30;2.20;;;;;;;;;;5063203;28;20051;-82
2023/12/27 03:03:35;;;;;;;5.00;1.95;;;;;;;;;;5065481;28;20078;-82
2023/12/27 03:06:01;;;;;;;4.80;2.28;;;;;;;;;;5068042;28;20037;-82
2023/12/27 03:08:27;;;;;;;4.00;2.10;;;;;;;;;;5068274;28;20100;-82
2023/12/27 03:10:55;;;;;;;6.07;2.20;;;;;;;;;;5056099;28;20037;-82
2023/12/27 03:13:21;;;;;;;3.17;2.38;;;;;;;;;;5058136;28;20045;-82
2023/12/27 03:15:47;;;;;;;5.40;2.13;;;;;;;;;;5063432;28;20096;-82
2023/12/27 03:18:13;;;;;;;3.83;2.15;;;;;;;;;;5062046;28;20049;-82
2023/12/27 03:20:39;;;;;;;3.90;2.08;;;;;;;;;;5063743;28;20460;-82
2023/12/27 03:23:05;;;;;;;3.10;1.92;;;;;;;;;;5063266;28;20043;-82
2023/12/27 03:25:31;;;;;;;4.43;2.75;;;;;;;;;;5060690;28;20407;-82
2023/12/27 03:27:57;;;;;;;3.47;2.03;;;;;;;;;;5061176;28;20048;-82
2023/12/27 03:30:24;;;;;;;3.40;1.73;;;;;;;;;;5063164;28;20044;-82
2023/12/27 03:32:50;;;;;;;5.45;2.60;;;;;;;;;;5063491;28;20035;-81
2023/12/27 03:35:17;;;;;;;4.25;2.30;;;;;;;;;;5061871;28;20037;-81
2023/12/27 03:37:45;;;;;;;3.78;1.80;;;;;;;;;;5078873;28;20428;-81
2023/12/27 03:40:11;;;;;;;4.68;1.95;;;;;;;;;;5080735;28;20506;-81
2023/12/27 03:42:37;;;;;;;5.90;2.35;;;;;;;;;;5084067;28;20040;-81
2023/12/27 03:45:03;;;;;;;3.13;2.22;;;;;;;;;;5081981;28;20079;-81
2023/12/27 03:47:29;;;;;;;5.03;2.08;;;;;;;;;;5082812;28;20044;-81
2023/12/27 03:49:55;;;;;;;3.50;1.85;;;;;;;;;;5066226;28;20104;-81
2023/12/27 03:52:21;;;;;;;4.40;2.20;;;;;;;;;;5064563;28;20041;-81
2023/12/27 03:54:50;;;;;;;3.92;1.63;;;;;;;;;;5084544;28;20037;-81
2023/12/27 03:57:16;;;;;;;2.78;1.92;;;;;;;;;;5058005;28;20127;-81
2023/12/27 03:59:42;;;;;;;5.90;1.73;;;;;;;;;;5074814;28;20044;-80
2023/12/27 04:02:08;;;;;;;7.13;2.03;;;;;;;;;;5061135;28;20056;-80
2023/12/27 04:04:34;;;;;;;4.78;2.15;;;;;;;;;;5075396;28;20024;-81
2023/12/27 04:07:00;;;;;;;4.43;1.90;;;;;;;;;;5061518;28;20052;-81
2023/12/27 04:09:26;;;;;;;2.42;1.83;;;;;;;;;;5081501;28;20070;-81
2023/12/27 04:11:52;;;;;;;6.50;2.00;;;;;;;;;;5064178;28;20044;-81
2023/12/27 04:14:18;;;;;;;3.95;2.00;;;;;;;;;;5081001;28;20525;-81
2023/12/27 04:16:45;;;;;;;4.45;2.08;;;;;;;;;;5081227;28;20050;-81
2023/12/27 04:19:11;;;;;;;3.67;2.10;;;;;;;;;;5079728;28;20060;-81
2023/12/27 04:21:37;;;;;;;5.22;2.13;;;;;;;;;;5079502;28;20049;-81
2023/12/27 04:24:03;;;;;;;4.88;2.20;;;;;;;;;;5080291;28;20037;-81
2023/12/27 04:26:30;;;;;;;5.53;2.05;;;;;;;;;;5081832;28;20036;-81
2023/12/27 04:28:56;;;;;;;4.70;2.10;;;;;;;;;;5063390;28;20051;-81
2023/12/27 04:31:25;;;;;;;4.45;2.00;;;;;;;;;;5082766;28;20043;-80
2023/12/27 04:33:51;;;;;;;3.42;1.83;;;;;;;;;;5058353;28;20076;-81
2023/12/27 04:36:17;;;;;;;2.95;1.58;;;;;;;;;;5060263;28;20076;-81
2023/12/27 04:38:43;;;;;;;3.03;2.03;;;;;;;;;;5073903;28;20048;-81
2023/12/27 04:41:12;;;;;;;7.00;2.90;;;;;;;;;;5081619;28;20036;-81
2023/12/27 04:43:37;;;;;;;2.25;1.60;;;;;;;;;;5082535;28;20048;-81
2023/12/27 04:46:06;;;;;;;2.00;1.65;;;;;;;;;;5076532;28;20044;-81
2023/12/27 04:48:32;;;;;;;5.25;1.90;;;;;;;;;;5063281;28;20044;-81
2023/12/27 04:51:02;;;;;;;4.15;1.98;;;;;;;;;;5083140;28;20033;-81
2023/12/27 04:53:28;;;;;;;3.55;2.47;;;;;;;;;;5066764;28;20041;-80
2023/12/27 04:55:53;;;;;;;2.53;1.60;;;;;;;;;;5065727;28;20047;-80
2023/12/27 04:58:20;;;;;;;2.90;1.83;;;;;;;;;;5050090;28;20488;-80
2023/12/27 05:00:46;;;;;;;4.80;2.13;;;;;;;;;;5065802;28;20051;-81
2023/12/27 05:03:12;;;;;;;3.13;1.88;;;;;;;;;;5064617;28;20495;-81
2023/12/27 05:05:39;;;;;;;3.60;1.95;;;;;;;;;;5066968;28;20109;-81
2023/12/27 05:08:05;;;;;;;3.80;2.17;;;;;;;;;;5081522;28;20041;-81
2023/12/27 05:10:31;;;;;;;3.10;1.60;;;;;;;;;;5085253;28;20400;-80
2023/12/27 05:12:57;;;;;;;4.90;1.98;;;;;;;;;;5085068;28;20036;-81
2023/12/27 05:15:23;;;;;;;4.28;1.77;;;;;;;;;;5087064;28;20043;-81
2023/12/27 05:17:52;;;;;;;5.65;2.42;;;;;;;;;;5078971;28;20115;-81
2023/12/27 05:20:18;;;;;;;2.55;1.98;;;;;;;;;;5085834;28;20043;-81
2023/12/27 05:22:44;;;;;;;2.50;1.67;;;;;;;;;;5084574;28;20101;-81
2023/12/27 05:25:12;;;;;;;4.35;1.75;;;;;;;;;;5065923;28;20109;-81
2023/12/27 05:27:38;;;;;;;2.60;1.80;;;;;;;;;;5082434;28;20044;-81
2023/12/27 05:30:05;;;;;;;2.30;1.52;;;;;;;;;;5081844;28;20032;-81
2023/12/27 05:32:31;;;;;;;2.17;1.85;;;;;;;;;;5085318;28;20044;-81
2023/12/27 05:34:57;;;;;;;2.35;1.80;;;;;;;;;;5085365;28;20047;-80
2023/12/27 05:37:23;;;;;;;2.40;1.90;;;;;;;;;;5067584;28;20075;-81
2023/12/27 05:39:53;;;;;;;4.15;2.55;;;;;;;;;;5064036;28;20643;-81
2023/12/27 05:42:19;;;;;;;2.85;1.77;;;;;;;;;;5086718;28;20045;-81
2023/12/27 05:44:45;;;;;;;2.58;1.80;;;;;;;;;;5085296;28;20029;-81
2023/12/27 05:47:10;;;;;;;4.47;2.17;;;;;;;;;;5068957;28;20037;-80
2023/12/27 05:49:36;;;;;;;5.35;2.15;;;;;;;;;;5086863;28;20550;-80
2023/12/27 05:52:03;;;;;;;6.78;3.00;;;;;;;;;;5087264;28;20060;-80
2023/12/27 05:54:29;;;;;;;4.47;2.53;;;;;;;;;;5069862;28;20086;-80
2023/12/27 05:56:55;;;;;;;4.80;2.38;;;;;;;;;;5087402;28;20096;-80
2023/12/27 05:59:21;;;;;;;4.28;2.90;;;;;;;;;;5088406;28;20048;-80
2023/12/27 06:01:48;;;;;;;6.10;3.00;;;;;;;;;;5088962;28;20037;-80
2023/12/27 06:04:15;;;;;;;4.15;3.08;;;;;;;;;;5083880;28;20040;-80
2023/12/27 06:06:41;;;;;;;4.57;2.70;;;;;;;;;;5087424;28;20040;-80
2023/12/27 06:09:08;;;;;;;5.20;3.00;;;;;;;;;;5083408;28;20041;-80
2023/12/27 06:11:34;;;;;;;5.72;2.80;;;;;;;;;;5058212;28;20033;-80
2023/12/27 06:14:00;;;;;;;6.30;2.50;;;;;;;;;;5082221;28;20068;-80
2023/12/27 06:16:26;;;;;;;5.53;2.75;;;;;;;;;;5083040;28;20120;-80
2023/12/27 06:18:54;;;;;;;6.43;2.83;;;;;;;;;;5082709;28;20135;-80
2023/12/27 06:21:20;;;;;;;5.35;2.90;;;;;;;;;;5067257;28;20047;-80
2023/12/27 06:23:46;;;;;;;7.55;2.85;;;;;;;;;;5079736;28;20044;-80
2023/12/27 06:26:12;;;;;;;7.78;3.17;;;;;;;;;;5083120;28;20123;-81
2023/12/27 06:28:38;;;;;;;5.55;2.67;;;;;;;;;;5083864;28;20044;-81
2023/12/27 06:31:04;;;;;;;5.55;2.97;;;;;;;;;;5049759;28;20064;-81
2023/12/27 06:33:30;;;;;;;6.18;3.40;;;;;;;;;;5086353;28;20037;-80
2023/12/27 06:35:56;;;;;;;7.28;3.53;;;;;;;;;;5077294;28;20040;-81
2023/12/27 06:38:23;;;;;;;5.45;2.75;;;;;;;;;;5067339;28;20049;-81
2023/12/27 06:40:48;;;;;;;7.72;3.17;;;;;;;;;;5081341;28;20045;-80
2023/12/27 06:43:14;;;;;;;3.83;2.78;;;;;;;;;;5063119;28;20041;-80
2023/12/27 06:45:40;;;;;;;6.03;3.08;;;;;;;;;;5077067;28;20151;-80
2023/12/27 06:48:07;;;;;;;8.55;3.05;;;;;;;;;;5070982;28;20425;-80
2023/12/27 06:50:33;;;;;;;4.05;2.97;;;;;;;;;;5056181;28;20131;-79
2023/12/27 06:52:59;;;;;;;4.68;2.70;;;;;;;;;;5077519;28;20083;-79
2023/12/27 06:55:25;;;;;;;6.35;3.03;;;;;;;;;;5084790;28;20096;-80
2023/12/27 06:57:51;;;;;;;5.80;2.72;;;;;;;;;;5091913;28;20032;-80
2023/12/27 07:00:17;;;;;;;5.60;2.90;;;;;;;;;;5071209;28;20048;-81
2023/12/27 07:02:43;;;;;;;6.32;2.88;;;;;;;;;;5065546;28;20089;-81
2023/12/27 07:05:11;;;;;;;5.47;3.25;;;;;;;;;;5057820;28;20048;-81
2023/12/27 07:07:37;;;;;;;6.45;3.38;;;;;;;;;;5060648;28;20048;-80
2023/12/27 07:10:04;;;;;;;7.72;3.13;;;;;;;;;;5061147;28;20396;-80
2023/12/27 07:12:30;;;;;;;4.72;2.90;;;;;;;;;;5058975;28;20108;-81
2023/12/27 07:14:56;;;;;;;5.82;3.25;;;;;;;;;;5061749;28;20029;-81
2023/12/27 07:17:23;;;;;;;6.70;3.13;;;;;;;;;;5047822;28;20033;-82
2023/12/27 07:19:49;;;;;;;3.83;3.05;;;;;;;;;;5063079;28;20133;-81
2023/12/27 07:22:15;;;;;;;4.05;2.50;;;;;;;;;;5062309;28;20484;-80
2023/12/27 07:24:41;;;;;;;5.05;2.85;;;;;;;;;;5061480;28;20040;-80
2023/12/27 07:27:09;;;;;;;6.80;3.03;;;;;;;;;;5072742;28;20028;-81
2023/12/27 07:29:36;;;;;;;6.05;2.83;;;;;;;;;;5061105;28;20051;-80
2023/12/27 07:32:06;;;;;;;5.20;2.90;;;;;;;;;;5075595;28;20079;-80
2023/12/27 07:34:32;;;;;;;4.70;3.00;;;;;;;;;;5078409;28;20096;-80
2023/12/27 07:37:03;;;;;;;5.28;3.38;;;;;;;;;;5041393;28;20117;-81
2023/12/27 07:39:29;;;;;;;8.65;2.97;;;;;;;;;;5069715;28;20045;-81
2023/12/27 07:41:56;;;;;;;5.75;2.75;;;;;;;;;;5052658;28;20041;-81
2023/12/27 07:44:22;;;;;;;7.63;2.97;;;;;;;;;;5073589;28;20093;-81
2023/12/27 07:46:48;;;;;;;5.20;3.00;;;;;;;;;;5071663;28;20037;-81
2023/12/27 07:49:14;;;;;;;6.63;2.63;;;;;;;;;;5080481;28;20036;-81
2023/12/27 07:51:40;;;;;;;7.43;2.63;;;;;;;;;;5055754;28;20189;-83
2023/12/27 07:54:07;;;;;;;5.60;2.30;;;;;;;;;;5079986;28;20037;-82
2023/12/27 07:56:34;;;;;;;5.03;3.20;;;;;;;;;;5064825;28;20040;-83
2023/12/27 07:59:00;;;;;;;7.22;2.75;;;;;;;;;;5077118;28;20496;-82
2023/12/27 08:01:31;;;;;;;8.38;3.05;;;;;;;;;;5032190;28;20044;-82
2023/12/27 08:03:57;;;;;;;4.80;2.13;;;;;;;;;;5056760;28;20503;-83
2023/12/27 08:06:23;;;;;;;6.45;2.75;;;;;;;;;;5050577;28;20055;-83
2023/12/27 08:08:49;;;;;;;5.90;2.35;;;;;;;;;;5050067;28;20170;-83
2023/12/27 08:11:15;;;;;;;5.00;2.30;;;;;;;;;;5054637;28;20097;-83
2023/12/27 08:13:41;;;;;;;5.90;2.60;;;;;;;;;;5060135;28;20037;-83
2023/12/27 08:16:08;;;;;;;5.20;2.75;;;;;;;;;;5057667;28;20112;-81
2023/12/27 08:18:35;;;;;;;3.92;2.30;;;;;;;;;;5067469;28;20040;-82
2023/12/27 08:21:01;;;;;;;4.40;2.30;;;;;;;;;;5069929;28;20044;-82
2023/12/27 08:23:27;;;;;;;6.97;2.47;;;;;;;;;;5075466;28;20033;-82
2023/12/27 08:25:53;;;;;;;4.30;2.47;;;;;;;;;;5060524;28;20106;-82
2023/12/27 08:28:19;;;;;;;4.85;2.20;;;;;;;;;;5060625;28;20040;-82
2023/12/27 08:30:46;;;;;;;5.13;2.47;;;;;;;;;;5077394;28;20037;-82
2023/12/27 08:33:12;;;;;;;4.72;2.65;;;;;;;;;;5057176;28;20132;-82
2023/12/27 08:35:38;;;;;;;7.55;3.33;;;;;;;;;;5061536;28;20032;-82
2023/12/27 08:38:08;;;;;;;6.47;2.60;;;;;;;;;;5075012;28;20109;-84
2023/12/27 08:40:34;;;;;;;4.78;2.50;;;;;;;;;;5066373;28;20040;-84
2023/12/27 08:43:01;;;;;;;4.28;2.65;;;;;;;;;;5084249;28;20086;-84
2023/12/27 08:45:27;;;;;;;6.72;2.88;;;;;;;;;;5085265;28;20037;-83
2023/12/27 08:47:53;;;;;;;3.90;3.03;;;;;;;;;;5064010;28;20068;-84
2023/12/27 08:50:19;;;;;;;5.57;2.72;;;;;;;;;;5084605;28;20055;-84
2023/12/27 08:52:45;;;;;;;4.30;2.20;;;;;;;;;;5084274;28;20032;-84
2023/12/27 08:55:12;;;;;;;6.68;3.03;;;;;;;;;;5065803;28;20119;-84
2023/12/27 08:57:38;;;;;;;6.18;2.97;;;;;;;;;;5085090;28;20044;-84
2023/12/27 09:00:08;;;;;;;6.43;2.55;;;;;;;;;;5087107;28;20032;-84
2023/12/27 09:02:34;;;;;;;;;;;;;;;;;;5086281;28;20067;-84
2023/12/27 09:05:01;;;;;;;6.22;2.30;;;;;;;;;;5090261;28;19924;-84
2023/12/27 09:07:27;;;;;;;7.43;2.63;;;;;;;;;;5087004;28;20055;-84
2023/12/27 09:09:53;;;;;;;5.10;2.97;;;;;;;;;;5084184;28;20036;-84
2023/12/27 09:12:18;;;;;;;4.78;2.80;;;;;;;;;;5079779;28;20041;-84
2023/12/27 09:14:44;;;;;;;9.52;2.85;;;;;;;;;;5060452;28;20059;-84
2023/12/27 09:17:11;;;;;;;7.90;2.72;;;;;;;;;;5078604;28;20037;-83
2023/12/27 09:19:37;;;;;;;7.80;3.72;;;;;;;;;;5062836;28;20194;-84
2023/12/27 09:22:03;;;;;;;8.88;2.95;;;;;;;;;;5059967;28;20075;-84
2023/12/27 09:24:29;;;;;;;8.55;3.25;;;;;;;;;;5059594;28;20098;-84
2023/12/27 09:26:58;;;;;;;6.80;3.75;;;;;;;;;;5076484;28;20063;-84
2023/12/27 09:29:24;;;;;;;6.57;3.90;;;;;;;;;;5060320;28;20049;-84
2023/12/27 09:31:50;;;;;;;8.20;3.33;;;;;;;;;;5078968;28;20123;-84
2023/12/27 09:34:16;;;;;;;7.53;4.15;;;;;;;;;;5059533;28;20075;-84
2023/12/27 09:36:42;;;;;;;7.20;3.80;;;;;;;;;;5054700;28;20056;-84
2023/12/27 09:39:11;;;;;;;10.05;4.40;;;;;;;;;;5058897;28;20067;-85
2023/12/27 09:41:37;;;;;;;8.23;4.45;;;;;;;;;;5042894;28;20045;-84
2023/12/27 09:44:04;;;;;;;6.45;3.80;;;;;;;;;;5078992;28;20036;-83
2023/12/27 09:46:30;;;;;;;6.38;4.07;;;;;;;;;;5053380;28;20040;-84
2023/12/27 09:48:56;;;;;;;10.07;4.15;;;;;;;;;;5062853;28;20044;-83
2023/12/27 09:51:23;;;;;;;5.63;3.42;;;;;;;;;;5064747;28;20071;-84
2023/12/27 09:53:50;;;;;;;7.93;4.53;;;;;;;;;;5069223;28;20062;-83
2023/12/27 09:56:17;;;;;;;5.85;3.17;;;;;;;;;;5077790;28;20075;-84
2023/12/27 09:58:43;;;;;;;9.20;4.13;;;;;;;;;;5077572;28;20499;-84
2023/12/27 10:01:10;;;;;;;7.63;4.03;;;;;;;;;;5075279;28;20508;-84
2023/12/27 10:03:40;;;;;;;4.20;3.60;;;;;;;;;;5060390;28;20044;-84
2023/12/27 10:06:11;;;;;;;5.90;3.75;;;;;;;;;;5076563;28;20127;-83
2023/12/27 10:08:38;;;;;;;7.85;4.25;;;;;;;;;;5077408;28;20051;-84
2023/12/27 10:11:07;;;;;;;6.22;3.70;;;;;;;;;;5074213;28;20380;-84
2023/12/27 10:13:35;;;;;;;6.95;4.30;;;;;;;;;;5056677;28;20047;-84
2023/12/27 10:16:04;;;;;;;6.47;3.92;;;;;;;;;;5073097;28;20048;-83
2023/12/27 10:18:30;;;;;;;7.18;3.97;;;;;;;;;;5042297;28;20040;-84
2023/12/27 10:20:56;;;;;;;8.57;4.07;;;;;;;;;;5078424;28;20048;-84
2023/12/27 10:23:23;;;;;;;8.38;3.53;;;;;;;;;;5078394;28;20081;-83
2023/12/27 10:25:51;;;;;;;6.97;3.70;;;;;;;;;;5055440;28;20048;-84
2023/12/27 10:28:17;;;;;;;9.15;4.47;;;;;;;;;;5059957;28;20051;-84
2023/12/27 10:30:45;;;;;;;7.72;4.05;;;;;;;;;;5054078;28;20372;-84
2023/12/27 10:33:11;;;;;;;7.55;3.50;;;;;;;;;;5070964;28;20036;-84
2023/12/27 10:35:38;;;;;;;8.95;4.57;;;;;;;;;;5056140;28;20515;-83
2023/12/27 10:38:05;;;;;;;8.95;3.72;;;;;;;;;;5074087;28;20055;-85
2023/12/27 10:40:35;;;;;;;5.97;3.20;;;;;;;;;;5057057;28;20395;-84
2023/12/27 10:43:00;;;;;;;8.50;3.47;;;;;;;;;;5074897;28;20495;-84
2023/12/27 10:45:27;;;;;;;10.98;4.18;;;;;;;;;;5076704;28;20042;-84
2023/12/27 10:47:58;;;;;;;5.65;3.55;;;;;;;;;;5070443;28;20071;-84
2023/12/27 10:50:24;;;;;;;9.43;4.55;;;;;;;;;;5073494;28;20078;-84
2023/12/27 10:52:55;;;;;;;7.82;4.05;;;;;;;;;;5058430;28;20071;-84
2023/12/27 10:55:23;;;;;;;5.97;3.72;;;;;;;;;;5056168;28;20071;-84
2023/12/27 10:57:54;;;;;;;9.57;5.00;;;;;;;;;;5072326;28;20044;-83
2023/12/27 11:00:20;;;;;;;9.10;4.05;;;;;;;;;;5077081;28;20499;-83
2023/12/27 11:02:47;;;;;;;8.02;4.05;;;;;;;;;;5054805;28;20044;-83
2023/12/27 11:05:15;;;;;;;7.80;3.80;;;;;;;;;;5076884;28;20041;-83
2023/12/27 11:07:43;;;;;;;7.53;3.83;;;;;;;;;;5078699;28;20037;-83
2023/12/27 11:10:10;;;;;;;7.05;4.22;;;;;;;;;;5076101;28;20044;-82
2023/12/27 11:12:38;;;;;;;8.70;3.90;;;;;;;;;;5077020;28;20036;-83
2023/12/27 11:15:04;;;;;;;6.78;4.20;;;;;;;;;;5073306;28;20506;-83
2023/12/27 11:17:31;;;;;;;10.38;4.07;;;;;;;;;;5076877;28;20040;-83
2023/12/27 11:19:57;;;;;;;8.27;3.90;;;;;;;;;;5078548;28;20048;-83
2023/12/27 11:22:23;;;;;;;10.32;4.55;;;;;;;;;;5058066;28;20044;-83
2023/12/27 11:24:49;;;;;;;7.03;4.22;;;;;;;;;;5074242;28;20119;-83
2023/12/27 11:27:19;;;;;;;8.80;4.80;;;;;;;;;;5076904;28;20068;-82
2023/12/27 11:29:46;;;;;;;14.13;5.47;;;;;;;;;;5075765;28;20033;-82
2023/12/27 11:32:12;;;;;;;6.88;3.90;;;;;;;;;;5068263;28;20532;-81
2023/12/27 11:34:38;;;;;;;9.57;4.78;;;;;;;;;;5056116;28;20126;-82
2023/12/27 11:37:04;;;;;;;5.78;3.63;;;;;;;;;;5068851;28;20067;-83
2023/12/27 11:39:30;;;;;;;7.82;3.63;;;;;;;;;;5070896;28;20040;-83
2023/12/27 11:41:58;;;;;;;6.25;4.10;;;;;;;;;;5052819;28;20056;-81
2023/12/27 11:44:24;;;;;;;7.97;4.32;;;;;;;;;;5070180;28;20068;-81
2023/12/27 11:46:50;;;;;;;8.18;4.40;;;;;;;;;;5068028;28;20396;-82
2023/12/27 11:49:19;;;;;;;11.23;4.97;;;;;;;;;;5057334;28;20048;-83
2023/12/27 11:51:46;;;;;;;6.45;4.22;;;;;;;;;;5072264;28;20419;-82
2023/12/27 11:54:22;;;;;;;7.15;4.72;;;;;;;;;;5075321;28;20051;-82
2023/12/27 11:56:48;;;;;;;7.38;3.80;;;;;;;;;;5058697;28;20047;-82
2023/12/27 11:59:15;;;;;;;6.22;4.13;;;;;;;;;;5057073;28;20055;-83
2023/12/27 12:01:41;;;;;;;5.70;3.83;;;;;;;;;;5077168;28;20044;-82
2023/12/27 12:04:10;;;;;;;6.63;3.90;;;;;;;;;;5054266;28;20498;-82
2023/12/27 12:06:55;;;;;;;6.07;3.85;;;;;;;;;;5054310;28;20044;-82
2023/12/27 12:09:37;;;;;;;5.07;3.45;;;;;;;;;;5062163;28;20104;-82
2023/12/27 12:12:11;;;;;;;6.75;4.18;;;;;;;;;;5073819;28;20053;-82
2023/12/27 12:14:39;;;;;;;7.75;3.90;;;;;;;;;;5077808;28;20076;-83
2023/12/27 12:17:09;;;;;;;6.05;3.92;;;;;;;;;;5057937;28;20041;-84
2023/12/27 12:19:38;;;;;;;7.97;3.83;;;;;;;;;;5052102;28;20491;-84
2023/12/27 12:22:05;;;;;;;7.13;3.70;;;;;;;;;;5065278;28;20048;-84
2023/12/27 12:24:31;;;;;;;9.57;4.78;;;;;;;;;;5068958;28;20511;-83
2023/12/27 12:26:57;;;;;;;5.90;4.38;;;;;;;;;;5075691;28;20032;-83
2023/12/27 12:29:26;;;;;;;9.80;4.75;;;;;;;;;;5076489;28;20032;-82
2023/12/27 12:31:55;;;;;;;6.43;4.15;;;;;;;;;;5074477;28;20127;-82
2023/12/27 12:34:23;;;;;;;6.13;4.15;;;;;;;;;;5076288;28;20037;-82
2023/12/27 12:36:50;;;;;;;6.00;3.90;;;;;;;;;;5061475;28;20055;-83
2023/12/27 12:39:16;;;;;;;9.18;4.63;;;;;;;;;;5081983;28;20045;-83
2023/12/27 12:41:43;;;;;;;6.45;4.20;;;;;;;;;;5064983;28;20446;-84
2023/12/27 12:44:12;;;;;;;7.13;4.32;;;;;;;;;;5055834;28;20055;-84
2023/12/27 12:46:39;;;;;;;7.38;4.55;;;;;;;;;;5071531;28;20045;-83
2023/12/27 12:49:06;;;;;;;8.32;5.05;;;;;;;;;;5067155;28;20039;-84
2023/12/27 12:51:32;;;;;;;6.93;4.47;;;;;;;;;;5053982;28;20484;-84
2023/12/27 12:53:59;;;;;;;7.00;3.90;;;;;;;;;;5032193;28;20123;-84
2023/12/27 12:56:25;;;;;;;8.45;4.70;;;;;;;;;;5067508;28;20090;-82
2023/12/27 12:58:52;;;;;;;5.90;4.28;;;;;;;;;;5073636;28;20082;-82
2023/12/27 13:01:19;;;;;;;10.27;5.30;;;;;;;;;;5073407;28;20100;-83
2023/12/27 13:03:48;;;;;;;9.32;4.93;;;;;;;;;;5070467;28;20444;-84
2023/12/27 13:06:15;;;;;;;8.82;5.10;;;;;;;;;;5067280;28;20049;-84
2023/12/27 13:08:41;;;;;;;6.68;4.75;;;;;;;;;;5069192;28;20036;-84
2023/12/27 13:11:08;;;;;;;8.80;4.85;;;;;;;;;;5054994;28;20101;-85
2023/12/27 13:13:34;;;;;;;7.60;4.95;;;;;;;;;;5055753;28;20045;-83
2023/12/27 13:16:00;;;;;;;9.23;5.43;;;;;;;;;;5055999;28;20052;-83
2023/12/27 13:18:26;;;;;;;8.88;5.55;;;;;;;;;;5074234;28;20089;-84
2023/12/27 13:20:53;;;;;;;7.15;4.75;;;;;;;;;;5069740;28;20040;-84
2023/12/27 13:23:19;;;;;;;7.30;4.47;;;;;;;;;;5056376;28;20131;-83
2023/12/27 13:25:45;;;;;;;7.55;5.93;;;;;;;;;;5074882;28;20032;-84
2023/12/27 13:28:11;;;;;;;8.50;4.47;;;;;;;;;;5050564;28;20048;-84
2023/12/27 13:30:37;;;;;;;7.63;5.20;;;;;;;;;;5072980;28;20044;-84
2023/12/27 13:33:04;;;;;;;9.90;6.18;;;;;;;;;;5076793;28;20341;-84
2023/12/27 13:35:31;;;;;;;9.68;5.28;;;;;;;;;;5073304;28;20549;-84
2023/12/27 13:37:57;;;;;;;9.18;5.68;;;;;;;;;;5072032;28;20048;-84
2023/12/27 13:40:23;;;;;;;8.00;5.22;;;;;;;;;;5069351;28;20052;-84
2023/12/27 13:42:49;;;;;;;8.77;6.18;;;;;;;;;;5071518;28;20438;-84
2023/12/27 13:45:15;;;;;;;8.85;5.63;;;;;;;;;;5075645;28;20041;-83
2023/12/27 13:47:41;;;;;;;8.45;5.75;;;;;;;;;;5056505;28;20123;-84
2023/12/27 13:50:07;;;;;;;10.00;5.95;;;;;;;;;;5053570;28;20121;-84
2023/12/27 13:52:33;;;;;;;8.68;4.90;;;;;;;;;;5055279;28;20052;-84
2023/12/27 13:54:59;;;;;;;10.27;5.47;;;;;;;;;;5052699;28;20395;-83
2023/12/27 13:57:25;;;;;;;8.85;5.05;;;;;;;;;;5058423;28;20120;-83
2023/12/27 13:59:51;;;;;;;8.35;4.47;;;;;;;;;;5058356;28;20068;-83
2023/12/27 14:02:18;;;;;;;8.00;5.38;;;;;;;;;;5072413;28;20048;-82
2023/12/27 14:04:46;;;;;;;10.05;5.68;;;;;;;;;;5059130;28;20048;-84
2023/12/27 14:07:12;;;;;;;10.07;5.45;;;;;;;;;;5072932;28;20613;-81
2023/12/27 14:09:39;;;;;;;8.98;5.22;;;;;;;;;;5058001;28;20707;-82
2023/12/27 14:12:05;;;;;;;7.57;5.32;;;;;;;;;;5076581;28;20051;-82
2023/12/27 14:14:32;;;;;;;9.85;5.65;;;;;;;;;;5060254;28;20040;-82
2023/12/27 14:16:58;;;;;;;8.07;5.05;;;;;;;;;;5076622;28;20036;-82
2023/12/27 14:19:24;;;;;;;6.60;4.28;;;;;;;;;;5055466;28;20043;-82
2023/12/27 14:21:50;;;;;;;7.93;5.00;;;;;;;;;;5057514;28;20044;-82
2023/12/27 14:24:17;;;;;;;6.70;4.20;;;;;;;;;;5060208;28;20393;-82
2023/12/27 14:26:43;;;;;;;6.65;4.32;;;;;;;;;;5076274;28;20040;-81
2023/12/27 14:29:09;;;;;;;6.35;4.07;;;;;;;;;;5076578;28;20077;-82
2023/12/27 14:31:35;;;;;;;9.52;4.68;;;;;;;;;;5076606;28;20044;-83
2023/12/27 14:34:02;;;;;;;7.95;4.75;;;;;;;;;;5057932;28;20044;-82
2023/12/27 14:36:29;;;;;;;8.55;4.82;;;;;;;;;;5075179;28;20052;-82
2023/12/27 14:39:04;;;;;;;8.25;4.28;;;;;;;;;;5073551;28;20037;-82